Aviation Digital Data Service (ADDS)

Output produced by METARs form (0154 UTC 25 February 2018)
found at http://www.aviationweather.gov/adds/metars/
 
EDDR 250150Z 07015KT CAVOK M04/M13 Q1020
TAF EDDR 242300Z 2500/2524 06015G25KT CAVOK 
     TEMPO 2509/2515 06020G30KT 
     BECMG 2518/2520 05012KT
       
ETAR 250056Z AUTO 04017KT 9999 CLR M04/M12 A3018 RMK AO2 SLP237 T10411116 $
TAF AMD ETAR 242116Z 2421/2600 05010G20KT 9999 FEW035 QNH3016INS 
     BECMG 2509/2510 05015G25KT 9999 SKC QNH3017INS TX02/2514Z TNM05/2506Z